Time;durP1;ratioP1;P1;durP2;ratioP2;P2;SDS_P1;SDS_P2;PMS_P1;PMS_P2;Temp;Humidity;BMP_temperature;BMP_pressure;BME280_temperature;BME280_humidity;BME280_pressure;Samples;Min_cycle;Max_cycle;Signal;HPM_P1;HPM_P2
2023/01/08 00:00:16;;;;;;;3.55;1.70;;;8.20;99.90;;;;;;7406543;19;19926;-72
2023/01/08 00:02:45;;;;;;;3.63;2.45;;;8.40;99.90;;;;;;7405616;19;19991;-72
2023/01/08 00:05:14;;;;;;;2.63;1.70;;;8.30;99.90;;;;;;7403711;19;19918;-72
2023/01/08 00:07:45;;;;;;;3.80;1.45;;;8.20;99.90;;;;;;7405506;19;19950;-72
2023/01/08 00:10:14;;;;;;;3.42;1.85;;;8.20;99.90;;;;;;7406538;19;20519;-72
2023/01/08 00:12:43;;;;;;;3.88;1.70;;;8.20;99.90;;;;;;7404900;19;19919;-72
2023/01/08 00:15:13;;;;;;;2.65;1.90;;;8.20;99.90;;;;;;7404820;19;19914;-71
2023/01/08 00:17:42;;;;;;;3.17;1.88;;;8.20;99.90;;;;;;7404510;19;19918;-72
2023/01/08 00:20:12;;;;;;;2.58;1.63;;;8.10;99.90;;;;;;7405892;19;20246;-72
2023/01/08 00:22:41;;;;;;;2.15;1.52;;;8.10;99.90;;;;;;7407494;19;20264;-72
2023/01/08 00:25:12;;;;;;;3.30;1.80;;;8.30;99.90;;;;;;7400952;19;19918;-72
2023/01/08 00:27:41;;;;;;;;;;;8.20;99.90;;;;;;7405007;19;19923;-73
2023/01/08 00:30:13;;;;;;;2.70;1.42;;;8.20;99.90;;;;;;7402628;19;20276;-71
2023/01/08 00:32:43;;;;;;;4.07;1.67;;;8.10;99.90;;;;;;7402852;19;20371;-71
2023/01/08 00:35:12;;;;;;;2.33;1.60;;;8.20;99.90;;;;;;7400731;19;20341;-72
2023/01/08 00:37:41;;;;;;;2.33;1.85;;;8.10;99.90;;;;;;7403074;19;19935;-73
2023/01/08 00:40:13;;;;;;;2.95;1.73;;;8.20;99.90;;;;;;7400526;19;20285;-73
2023/01/08 00:42:42;;;;;;;;;;;8.10;99.90;;;;;;7403272;19;20255;-72
2023/01/08 00:45:12;;;;;;;3.35;1.40;;;8.20;99.90;;;;;;7399754;19;19922;-72
2023/01/08 00:47:44;;;;;;;3.10;1.52;;;8.10;99.90;;;;;;7398109;19;19923;-72
2023/01/08 00:50:13;;;;;;;2.47;1.52;;;8.10;99.90;;;;;;7400951;19;19922;-72
2023/01/08 00:52:42;;;;;;;3.03;1.77;;;8.20;99.90;;;;;;7403446;19;20282;-72
2023/01/08 00:55:17;;;;;;;2.55;1.80;;;8.00;99.90;;;;;;7397693;19;19942;-72
2023/01/08 00:57:46;;;;;;;2.70;1.92;;;8.20;99.90;;;;;;7400964;19;19929;-72
2023/01/08 01:00:17;;;;;;;3.47;1.85;;;8.10;99.90;;;;;;7402090;19;19939;-72
2023/01/08 01:02:47;;;;;;;1.92;1.58;;;8.20;99.90;;;;;;7401122;19;19930;-72
2023/01/08 01:05:17;;;;;;;3.25;1.85;;;8.10;99.90;;;;;;7398959;19;20244;-72
2023/01/08 01:07:46;;;;;;;3.47;1.83;;;8.10;99.90;;;;;;7401902;19;19930;-72
2023/01/08 01:10:19;;;;;;;2.63;1.90;;;8.20;99.90;;;;;;7401585;19;19919;-72
2023/01/08 01:12:48;;;;;;;2.85;1.80;;;8.10;99.90;;;;;;7402864;19;19915;-72
2023/01/08 01:15:19;;;;;;;4.38;1.88;;;8.10;99.90;;;;;;7399930;19;20596;-72
2023/01/08 01:17:49;;;;;;;3.30;1.95;;;8.10;99.90;;;;;;7399877;19;20323;-72
2023/01/08 01:20:18;;;;;;;2.38;1.75;;;8.20;99.90;;;;;;7402336;19;19922;-72
2023/01/08 01:22:47;;;;;;;3.05;1.90;;;8.00;99.90;;;;;;7403233;19;19919;-72
2023/01/08 01:25:19;;;;;;;2.20;1.65;;;8.10;99.90;;;;;;7400537;19;19987;-72
2023/01/08 01:28:02;;;;;;;2.83;2.10;;;8.10;99.90;;;;;;7398773;19;20376;-72
2023/01/08 01:30:31;;;;;;;3.08;1.90;;;8.10;99.90;;;;;;7403935;19;19943;-72
2023/01/08 01:33:02;;;;;;;3.80;2.00;;;8.00;99.90;;;;;;7402855;19;19911;-72
2023/01/08 01:35:41;;;;;;;2.80;1.70;;;8.10;99.90;;;;;;7401824;19;19926;-72
2023/01/08 01:38:16;;;;;;;3.35;1.70;;;8.10;99.90;;;;;;7401392;19;19918;-72
2023/01/08 01:40:48;;;;;;;3.83;2.08;;;7.90;99.90;;;;;;7401310;19;19943;-72
2023/01/08 01:43:17;;;;;;;3.03;1.77;;;8.10;99.90;;;;;;7401678;19;20529;-73
2023/01/08 01:45:48;;;;;;;2.80;1.98;;;8.00;99.90;;;;;;7401675;19;19922;-72
2023/01/08 01:48:17;;;;;;;3.13;1.67;;;8.10;99.90;;;;;;7404373;19;19926;-72
2023/01/08 01:50:51;;;;;;;1.90;1.60;;;8.10;99.90;;;;;;7402386;19;19922;-72
2023/01/08 01:53:24;;;;;;;3.80;1.88;;;8.10;99.90;;;;;;7401203;19;19918;-72
2023/01/08 01:55:56;;;;;;;3.88;1.70;;;8.20;99.90;;;;;;7404432;19;19931;-71
2023/01/08 01:58:27;;;;;;;3.63;2.28;;;8.20;99.90;;;;;;7399994;19;19933;-72
2023/01/08 02:00:58;;;;;;;3.17;1.42;;;8.20;99.90;;;;;;7408093;19;19923;-71
2023/01/08 02:03:32;;;;;;;3.50;2.03;;;8.20;99.90;;;;;;7405355;19;19915;-71
2023/01/08 02:06:11;;;;;;;2.45;1.63;;;8.20;99.90;;;;;;7408154;19;19921;-71
2023/01/08 02:08:49;;;;;;;2.65;1.70;;;8.20;99.90;;;;;;7407572;19;20275;-71
2023/01/08 02:11:28;;;;;;;2.90;1.55;;;8.20;99.90;;;;;;7409810;19;19926;-73
2023/01/08 02:14:04;;;;;;;2.78;1.17;;;8.20;99.90;;;;;;7404898;19;19919;-71
2023/01/08 02:16:41;;;;;;;2.50;1.60;;;8.20;99.90;;;;;;7407686;19;19929;-71
2023/01/08 02:19:21;;;;;;;1.95;1.25;;;8.10;99.90;;;;;;7408250;19;20332;-71
2023/01/08 02:22:03;;;;;;;3.63;1.10;;;8.20;99.90;;;;;;7407298;19;20349;-72
2023/01/08 02:24:47;;;;;;;2.88;1.02;;;8.10;99.90;;;;;;7404387;19;19927;-71
2023/01/08 02:27:20;;;;;;;1.20;0.80;;;8.10;99.90;;;;;;7406833;19;20336;-71
2023/01/08 02:29:50;;;;;;;1.50;0.80;;;8.20;99.90;;;;;;7404855;19;20347;-71
2023/01/08 02:32:19;;;;;;;2.25;1.00;;;8.20;99.90;;;;;;7404279;19;19918;-71
2023/01/08 02:34:49;;;;;;;2.33;0.90;;;8.50;99.90;;;;;;7395031;19;19926;-71
2023/01/08 02:37:18;;;;;;;2.58;1.00;;;8.00;99.90;;;;;;7405148;19;19926;-72
2023/01/08 02:40:01;;;;;;;3.70;0.93;;;8.00;99.90;;;;;;7406853;19;19919;-72
2023/01/08 02:42:40;;;;;;;1.17;0.73;;;7.90;99.90;;;;;;7403080;19;20382;-71
2023/01/08 02:45:16;;;;;;;2.38;0.70;;;7.90;99.90;;;;;;7405640;19;20353;-71
2023/01/08 02:47:53;;;;;;;2.50;0.70;;;7.80;99.90;;;;;;7403125;19;19922;-72
2023/01/08 02:50:26;;;;;;;5.82;0.88;;;7.80;99.90;;;;;;7407891;19;20443;-72
2023/01/08 02:53:04;;;;;;;3.42;0.90;;;7.80;99.90;;;;;;7403958;19;19919;-71
2023/01/08 02:55:39;;;;;;;2.45;0.47;;;7.70;99.90;;;;;;7404697;19;19966;-72
2023/01/08 02:58:12;;;;;;;7.75;1.20;;;7.70;99.90;;;;;;7403327;19;19929;-71
2023/01/08 03:00:44;;;;;;;4.10;0.65;;;7.60;99.90;;;;;;7401004;19;19994;-72
2023/01/08 03:03:14;;;;;;;;;;;7.50;99.90;;;;;;7409833;19;19950;-72
2023/01/08 03:05:48;;;;;;;3.75;0.80;;;7.50;99.90;;;;;;7400137;19;19929;-71
2023/01/08 03:08:19;;;;;;;5.22;0.80;;;7.40;99.90;;;;;;7402620;19;20268;-72
2023/01/08 03:10:58;;;;;;;3.95;0.70;;;6.30;99.90;;;;;;7400652;19;19992;-71
2023/01/08 03:13:39;;;;;;;4.70;0.88;;;7.50;99.90;;;;;;7407066;19;20345;-71
2023/01/08 03:16:12;;;;;;;1.48;0.60;;;7.60;99.90;;;;;;7403425;19;19923;-71
2023/01/08 03:18:45;;;;;;;10.52;1.10;;;7.30;99.90;;;;;;7405353;19;20336;-72
2023/01/08 03:21:17;;;;;;;6.38;1.20;;;7.30;99.90;;;;;;7401991;19;19926;-72
2023/01/08 03:23:54;;;;;;;4.30;0.90;;;7.30;99.90;;;;;;7401476;19;19914;-72
2023/01/08 03:26:28;;;;;;;6.10;0.90;;;7.30;99.90;;;;;;7405212;19;20372;-72
2023/01/08 03:29:00;;;;;;;4.90;0.88;;;7.30;99.90;;;;;;7400334;19;19919;-72
2023/01/08 03:31:33;;;;;;;4.75;1.08;;;7.30;99.90;;;;;;7400831;19;19935;-72
2023/01/08 03:34:05;;;;;;;7.82;1.08;;;7.20;99.90;;;;;;7402232;19;19922;-72
2023/01/08 03:36:42;;;;;;;7.85;1.27;;;7.80;99.90;;;;;;7401983;19;20332;-72
2023/01/08 03:39:18;;;;;;;9.95;1.20;;;7.10;99.90;;;;;;7399191;19;20275;-72
2023/01/08 03:41:49;;;;;;;4.45;0.70;;;7.20;99.90;;;;;;7403740;19;20425;-72
2023/01/08 03:44:21;;;;;;;9.02;1.08;;;7.10;99.90;;;;;;7402377;19;19918;-73
2023/01/08 03:46:57;;;;;;;7.57;1.15;;;7.10;99.90;;;;;;7400347;19;19941;-73
2023/01/08 03:49:30;;;;;;;5.18;0.73;;;7.20;99.90;;;;;;7401922;19;20396;-72
2023/01/08 03:51:59;;;;;;;6.45;1.20;;;7.10;99.90;;;;;;7400900;19;19922;-72
2023/01/08 03:54:32;;;;;;;7.25;1.00;;;7.10;99.90;;;;;;7403024;19;19931;-72
2023/01/08 03:57:01;;;;;;;5.28;0.88;;;7.20;99.90;;;;;;7398749;19;19958;-72
2023/01/08 03:59:33;;;;;;;7.70;0.80;;;6.90;99.90;;;;;;7403934;19;19914;-72
2023/01/08 04:02:02;;;;;;;3.45;0.88;;;8.10;99.90;;;;;;7400316;19;19943;-72
2023/01/08 04:04:31;;;;;;;2.40;0.65;;;7.10;99.90;;;;;;7404171;19;19919;-72
2023/01/08 04:07:00;;;;;;;6.80;1.20;;;7.10;99.90;;;;;;7405411;19;19982;-72
2023/01/08 04:09:29;;;;;;;2.53;0.80;;;7.10;99.90;;;;;;7406441;19;19936;-72
2023/01/08 04:11:58;;;;;;;4.80;1.15;;;7.10;99.90;;;;;;7403656;19;19919;-72
2023/01/08 04:14:29;;;;;;;4.85;0.85;;;7.10;99.90;;;;;;7404053;19;19928;-73
2023/01/08 04:17:00;;;;;;;3.17;1.00;;;7.10;99.90;;;;;;7404514;19;19926;-72
2023/01/08 04:19:29;;;;;;;2.42;0.80;;;7.30;99.90;;;;;;7404101;19;19914;-72
2023/01/08 04:21:58;;;;;;;2.88;0.98;;;7.10;99.90;;;;;;7404643;19;20389;-72
2023/01/08 04:24:27;;;;;;;6.00;1.20;;;7.10;99.90;;;;;;7399548;19;20622;-72
2023/01/08 04:26:56;;;;;;;2.08;1.00;;;7.20;99.90;;;;;;7404446;19;20361;-72
2023/01/08 04:29:25;;;;;;;3.63;1.00;;;7.20;99.90;;;;;;7405737;19;20284;-72
2023/01/08 04:31:54;;;;;;;3.00;1.40;;;7.10;99.90;;;;;;7405752;19;19986;-72
2023/01/08 04:34:25;;;;;;;5.15;1.27;;;7.20;99.90;;;;;;7407113;19;19931;-72
2023/01/08 04:36:55;;;;;;;4.53;1.33;;;7.10;99.90;;;;;;7397810;19;19966;-72
2023/01/08 04:39:24;;;;;;;2.85;1.20;;;7.10;99.90;;;;;;7404348;19;19986;-72
2023/01/08 04:41:58;;;;;;;2.47;1.23;;;7.20;99.90;;;;;;7406090;19;20260;-72
2023/01/08 04:44:27;;;;;;;3.95;1.63;;;7.80;99.90;;;;;;7404849;19;19919;-72
2023/01/08 04:46:57;;;;;;;3.50;1.30;;;7.70;99.90;;;;;;7402269;19;19914;-72
2023/01/08 04:49:29;;;;;;;3.63;1.40;;;7.20;99.90;;;;;;7398902;19;19922;-72
2023/01/08 04:51:58;;;;;;;2.45;1.45;;;7.40;99.90;;;;;;7397254;19;19925;-72
2023/01/08 04:54:27;;;;;;;4.03;1.58;;;7.40;99.90;;;;;;7400455;19;19922;-72
2023/01/08 04:56:56;;;;;;;3.65;1.75;;;7.50;99.90;;;;;;7400698;19;20372;-72
2023/01/08 04:59:25;;;;;;;3.85;1.50;;;7.40;99.90;;;;;;7401650;19;20377;-72
2023/01/08 05:01:55;;;;;;;3.15;1.52;;;7.50;99.90;;;;;;7401843;19;20345;-72
2023/01/08 05:04:24;;;;;;;5.80;1.30;;;7.50;99.90;;;;;;7402469;19;19918;-72
2023/01/08 05:06:55;;;;;;;3.95;1.70;;;7.50;99.90;;;;;;7402595;19;19943;-72
2023/01/08 05:09:25;;;;;;;3.42;1.17;;;7.50;99.90;;;;;;7402393;19;19923;-72
2023/01/08 05:11:54;;;;;;;2.00;1.48;;;7.50;99.90;;;;;;7400370;19;19943;-73
2023/01/08 05:14:23;;;;;;;5.82;1.10;;;7.40;99.90;;;;;;7403193;19;19915;-72
2023/01/08 05:16:52;;;;;;;4.95;1.60;;;7.60;99.90;;;;;;7401247;19;19930;-72
2023/01/08 05:19:21;;;;;;;3.20;1.67;;;7.40;99.90;;;;;;7402547;19;19922;-72
2023/01/08 05:21:50;;;;;;;2.42;1.10;;;7.50;99.90;;;;;;7402475;19;20305;-72
2023/01/08 05:24:21;;;;;;;4.28;1.50;;;7.30;99.90;;;;;;7401177;19;19922;-72
2023/01/08 05:26:51;;;;;;;3.60;1.13;;;7.50;99.90;;;;;;7401229;19;19926;-72
2023/01/08 05:29:19;;;;;;;2.95;0.98;;;7.50;99.90;;;;;;7401937;19;20348;-72
2023/01/08 05:31:48;;;;;;;5.78;1.20;;;7.40;99.90;;;;;;7403322;19;19930;-72
2023/01/08 05:34:17;;;;;;;1.95;0.95;;;7.50;99.90;;;;;;7400337;19;19978;-72
2023/01/08 05:36:47;;;;;;;2.25;1.27;;;7.30;99.90;;;;;;7403915;19;19918;-72
2023/01/08 05:39:17;;;;;;;4.88;1.17;;;7.40;99.90;;;;;;7408799;19;19922;-72
2023/01/08 05:41:48;;;;;;;1.63;1.25;;;7.50;99.90;;;;;;7408399;19;19933;-72
2023/01/08 05:44:19;;;;;;;1.77;1.00;;;7.40;99.90;;;;;;7408501;19;20024;-72
2023/01/08 05:46:48;;;;;;;1.85;0.85;;;7.40;99.90;;;;;;7405503;19;20280;-72
2023/01/08 05:49:17;;;;;;;2.33;1.02;;;7.70;99.90;;;;;;7404728;19;20027;-72
2023/01/08 05:51:46;;;;;;;1.30;0.88;;;7.30;99.90;;;;;;7406440;19;19936;-73
2023/01/08 05:54:18;;;;;;;1.80;1.13;;;7.30;99.90;;;;;;7408238;19;20003;-72
2023/01/08 05:56:50;;;;;;;1.80;1.00;;;7.40;99.90;;;;;;7404361;19;19922;-72
2023/01/08 05:59:19;;;;;;;1.88;0.90;;;7.30;99.90;;;;;;7408815;19;19943;-72
2023/01/08 06:01:48;;;;;;;2.55;1.00;;;7.30;99.90;;;;;;7397453;19;20349;-72
2023/01/08 06:04:22;;;;;;;3.38;0.93;;;7.40;99.90;;;;;;7407589;19;20277;-72
2023/01/08 06:06:51;;;;;;;3.55;0.93;;;7.30;99.90;;;;;;7404911;19;19936;-72
2023/01/08 06:09:20;;;;;;;3.35;0.73;;;7.30;99.90;;;;;;7408892;19;20329;-72
2023/01/08 06:11:52;;;;;;;2.05;0.80;;;7.30;99.90;;;;;;7407754;19;20258;-72
2023/01/08 06:14:26;;;;;;;1.23;0.68;;;7.10;99.90;;;;;;7408782;19;19933;-72
2023/01/08 06:16:56;;;;;;;2.80;1.23;;;7.30;99.90;;;;;;7404291;19;19981;-72
2023/01/08 06:19:25;;;;;;;2.63;0.95;;;7.30;99.90;;;;;;7406676;19;20392;-72
2023/01/08 06:21:54;;;;;;;3.72;1.00;;;6.50;99.90;;;;;;7406541;19;19919;-72
2023/01/08 06:24:23;;;;;;;2.40;1.20;;;7.70;99.90;;;;;;7409109;19;20288;-72
2023/01/08 06:26:54;;;;;;;4.80;1.20;;;7.20;99.90;;;;;;7407561;19;19951;-73
2023/01/08 06:29:24;;;;;;;3.83;1.33;;;7.20;99.90;;;;;;7408102;19;21094;-72
2023/01/08 06:31:53;;;;;;;2.38;1.30;;;7.10;99.90;;;;;;7404040;19;19922;-72
2023/01/08 06:34:24;;;;;;;1.38;1.02;;;7.20;99.90;;;;;;7404132;19;19935;-72
2023/01/08 06:36:53;;;;;;;2.28;1.35;;;7.00;99.90;;;;;;7405250;19;19986;-73
2023/01/08 06:39:23;;;;;;;4.45;1.70;;;7.10;99.90;;;;;;7406847;19;19926;-72
2023/01/08 06:41:54;;;;;;;3.65;1.50;;;7.00;99.90;;;;;;7405513;19;20245;-72
2023/01/08 06:44:24;;;;;;;4.15;1.35;;;7.10;99.90;;;;;;7406781;19;19918;-72
2023/01/08 06:46:53;;;;;;;3.72;1.60;;;7.10;99.90;;;;;;7403802;19;19925;-75
2023/01/08 06:49:22;;;;;;;4.85;1.55;;;7.10;99.90;;;;;;7405102;19;19930;-72
2023/01/08 06:51:51;;;;;;;3.50;1.20;;;7.20;99.90;;;;;;7405468;19;19923;-72
2023/01/08 06:54:20;;;;;;;3.05;1.30;;;7.00;99.90;;;;;;7405475;19;19922;-72
2023/01/08 06:56:50;;;;;;;2.20;1.45;;;7.00;99.90;;;;;;7405877;19;19915;-72
2023/01/08 06:59:22;;;;;;;3.00;1.13;;;7.00;99.90;;;;;;7404948;19;19962;-72
2023/01/08 07:01:51;;;;;;;1.83;0.82;;;7.10;99.90;;;;;;7395916;19;19982;-72
2023/01/08 07:04:21;;;;;;;7.35;1.10;;;8.00;99.90;;;;;;7403026;19;19974;-73
2023/01/08 07:06:50;;;;;;;2.97;0.82;;;7.10;99.90;;;;;;7403070;19;20281;-72
2023/01/08 07:09:19;;;;;;;5.85;1.35;;;7.10;99.90;;;;;;7403396;19;19934;-72
2023/01/08 07:11:48;;;;;;;2.63;1.25;;;7.00;99.90;;;;;;7402226;19;19950;-72
2023/01/08 07:14:17;;;;;;;3.78;0.73;;;6.70;99.90;;;;;;7403653;19;19957;-72
2023/01/08 07:16:49;;;;;;;4.95;1.20;;;6.90;99.90;;;;;;7401113;19;19946;-73
2023/01/08 07:19:17;;;;;;;4.13;0.90;;;6.90;99.90;;;;;;7403374;19;19926;-71
2023/01/08 07:21:47;;;;;;;0.82;0.68;;;6.90;99.90;;;;;;7397952;19;20260;-73
2023/01/08 07:24:23;;;;;;;3.53;0.70;;;6.80;99.90;;;;;;7401605;19;19941;-72
2023/01/08 07:26:52;;;;;;;5.32;1.33;;;6.90;99.90;;;;;;7404615;19;19919;-72
2023/01/08 07:29:21;;;;;;;3.95;0.65;;;7.00;99.90;;;;;;7303759;19;19930;-72
2023/01/08 07:31:53;;;;;;;2.08;0.50;;;7.30;99.90;;;;;;7402052;19;20321;-73
2023/01/08 07:34:22;;;;;;;2.70;0.77;;;6.90;99.90;;;;;;7402357;19;20348;-72
2023/01/08 07:36:51;;;;;;;4.57;1.00;;;6.80;99.90;;;;;;7401504;19;20450;-72
2023/01/08 07:39:24;;;;;;;2.78;0.80;;;6.80;99.90;;;;;;7402378;19;19978;-72
2023/01/08 07:41:53;;;;;;;2.83;0.70;;;6.90;99.90;;;;;;7404963;19;19910;-72
2023/01/08 07:44:22;;;;;;;2.78;0.80;;;6.90;99.90;;;;;;7405037;19;19919;-72
2023/01/08 07:46:57;;;;;;;4.97;1.10;;;6.80;99.90;;;;;;7398553;19;19923;-72
2023/01/08 07:49:26;;;;;;;5.60;0.90;;;6.80;99.90;;;;;;7399416;19;19985;-73
2023/01/08 07:51:55;;;;;;;4.63;0.65;;;6.80;99.90;;;;;;7398585;19;19926;-73
2023/01/08 07:54:24;;;;;;;2.95;0.98;;;6.70;99.90;;;;;;7363780;19;19914;-73
2023/01/08 07:56:55;;;;;;;4.07;0.82;;;6.80;99.90;;;;;;7397578;19;20337;-72
2023/01/08 07:59:24;;;;;;;3.17;0.70;;;6.80;99.90;;;;;;7405142;19;19918;-72
2023/01/08 08:01:55;;;;;;;2.95;0.50;;;6.80;99.90;;;;;;7402769;19;20369;-72
2023/01/08 08:04:25;;;;;;;2.33;0.70;;;7.80;99.90;;;;;;7399863;19;19934;-72
2023/01/08 08:06:55;;;;;;;3.17;1.13;;;6.80;99.90;;;;;;7397940;19;19922;-73
2023/01/08 08:09:24;;;;;;;5.53;0.80;;;6.90;99.90;;;;;;7397654;19;19922;-73
2023/01/08 08:11:53;;;;;;;2.70;0.93;;;6.90;99.90;;;;;;7395273;19;19922;-72
2023/01/08 08:14:22;;;;;;;2.47;1.10;;;8.60;99.90;;;;;;7401906;19;19929;-72
2023/01/08 08:16:51;;;;;;;2.00;0.77;;;6.90;99.90;;;;;;7398680;19;20258;-72
2023/01/08 08:19:23;;;;;;;3.55;1.27;;;6.90;99.90;;;;;;7404275;19;20297;-73
2023/01/08 08:21:55;;;;;;;4.50;1.40;;;7.40;99.90;;;;;;7401749;19;19923;-73
2023/01/08 08:24:24;;;;;;;3.90;1.63;;;6.70;99.90;;;;;;7399350;19;20296;-73
2023/01/08 08:26:53;;;;;;;4.50;1.35;;;6.80;99.90;;;;;;7401603;19;19919;-73
2023/01/08 08:29:22;;;;;;;2.58;1.10;;;6.80;99.90;;;;;;7397820;19;20281;-72
2023/01/08 08:31:51;;;;;;;5.35;1.02;;;6.70;99.90;;;;;;7400635;19;19974;-74
2023/01/08 08:34:23;;;;;;;3.65;1.20;;;6.70;99.90;;;;;;7401813;19;19982;-74
2023/01/08 08:36:52;;;;;;;3.63;1.27;;;6.70;99.90;;;;;;7400536;19;19918;-72
2023/01/08 08:39:21;;;;;;;5.15;1.42;;;6.60;99.90;;;;;;7397881;19;20253;-74
2023/01/08 08:41:50;;;;;;;4.75;1.67;;;6.60;99.90;;;;;;7397655;19;19921;-73
2023/01/08 08:44:20;;;;;;;3.70;1.30;;;6.50;99.90;;;;;;7394655;19;19918;-72
2023/01/08 08:46:49;;;;;;;4.72;1.50;;;6.80;99.90;;;;;;7393326;19;19923;-73
2023/01/08 08:49:18;;;;;;;4.03;1.45;;;7.30;99.90;;;;;;7400214;19;19926;-72
2023/01/08 08:51:51;;;;;;;5.95;1.67;;;6.60;99.90;;;;;;7401179;19;19928;-71
2023/01/08 08:54:21;;;;;;;7.20;1.48;;;6.80;99.90;;;;;;7402431;19;19925;-72
2023/01/08 08:56:53;;;;;;;4.70;1.20;;;6.90;99.90;;;;;;7398102;19;20255;-72
2023/01/08 08:59:22;;;;;;;4.60;1.40;;;6.60;99.90;;;;;;7398275;19;19918;-72
2023/01/08 09:01:51;;;;;;;3.17;1.40;;;6.60;99.90;;;;;;7395769;19;19935;-73
2023/01/08 09:04:25;;;;;;;2.58;0.95;;;6.70;99.90;;;;;;7401326;19;19927;-73
2023/01/08 09:06:56;;;;;;;11.30;1.33;;;6.90;99.90;;;;;;7398738;19;19918;-73
2023/01/08 09:09:45;;;;;;;3.28;1.20;;;6.70;99.90;;;;;;7396770;19;19918;-73
2023/01/08 09:12:14;;;;;;;5.53;1.08;;;6.70;99.90;;;;;;7400891;19;19981;-72
2023/01/08 09:14:43;;;;;;;4.60;1.40;;;6.70;99.90;;;;;;7401822;19;19922;-72
2023/01/08 09:17:12;;;;;;;3.55;0.93;;;6.70;99.90;;;;;;7399188;19;20349;-72
2023/01/08 09:19:49;;;;;;;7.60;1.00;;;6.80;99.90;;;;;;7401738;19;19919;-72
2023/01/08 09:22:21;;;;;;;7.30;1.20;;;6.80;99.90;;;;;;7403262;19;19923;-73
2023/01/08 09:24:50;;;;;;;4.78;0.90;;;6.70;99.90;;;;;;7401980;19;19927;-71
2023/01/08 09:27:19;;;;;;;4.97;0.95;;;6.70;99.90;;;;;;7398079;19;20280;-73
2023/01/08 09:29:48;;;;;;;7.75;1.10;;;7.00;99.90;;;;;;7400213;19;19922;-72
2023/01/08 09:32:17;;;;;;;4.78;1.05;;;7.20;99.90;;;;;;7402476;19;19919;-72
2023/01/08 09:34:46;;;;;;;3.13;0.93;;;6.90;99.90;;;;;;7396859;19;20575;-72
2023/01/08 09:37:15;;;;;;;3.90;1.10;;;7.80;99.90;;;;;;7399176;19;20026;-72
2023/01/08 09:39:47;;;;;;;3.80;0.90;;;6.90;99.90;;;;;;7401274;19;20337;-72
2023/01/08 09:42:17;;;;;;;5.53;0.68;;;6.90;99.90;;;;;;7400700;19;19978;-72
2023/01/08 09:44:51;;;;;;;3.10;0.80;;;6.90;99.90;;;;;;7400728;19;19918;-73
2023/01/08 09:47:27;;;;;;;3.00;0.90;;;7.10;99.90;;;;;;7398720;19;19938;-72
2023/01/08 09:50:00;;;;;;;4.63;0.88;;;6.90;99.90;;;;;;7402544;19;19981;-72
2023/01/08 09:52:30;;;;;;;2.08;0.68;;;7.10;99.90;;;;;;7402233;19;19925;-73
2023/01/08 09:55:02;;;;;;;3.22;1.20;;;7.10;99.90;;;;;;7398656;19;19922;-73
2023/01/08 09:57:35;;;;;;;3.17;0.75;;;7.90;99.90;;;;;;7397101;19;19923;-72
2023/01/08 10:00:05;;;;;;;4.47;0.82;;;7.70;99.90;;;;;;7399947;19;19915;-74
2023/01/08 10:02:42;;;;;;;6.47;1.27;;;7.10;99.90;;;;;;7399877;19;19919;-72
2023/01/08 10:05:16;;;;;;;3.55;1.10;;;7.20;99.90;;;;;;7396894;19;19939;-72
2023/01/08 10:07:46;;;;;;;3.35;0.73;;;7.20;99.90;;;;;;7398380;19;19918;-73
2023/01/08 10:10:23;;;;;;;4.70;0.90;;;7.20;99.90;;;;;;7400369;19;19934;-73
2023/01/08 10:12:52;;;;;;;4.78;1.27;;;7.20;99.90;;;;;;7399244;19;19915;-72
2023/01/08 10:15:24;;;;;;;3.70;0.80;;;7.30;99.90;;;;;;7398290;19;19941;-72
2023/01/08 10:18:02;;;;;;;5.00;0.80;;;7.30;99.90;;;;;;7397484;19;19919;-73
2023/01/08 10:20:32;;;;;;;4.45;0.57;;;7.30;99.90;;;;;;7402485;19;19932;-72
2023/01/08 10:23:12;;;;;;;5.03;0.75;;;7.30;99.90;;;;;;7406770;19;19978;-72
2023/01/08 10:25:58;;;;;;;8.60;1.15;;;7.40;99.90;;;;;;7406655;19;20309;-74
2023/01/08 10:28:29;;;;;;;6.47;1.30;;;7.40;99.90;;;;;;7406842;19;20300;-72
2023/01/08 10:31:05;;;;;;;5.85;0.77;;;7.40;99.90;;;;;;7404518;19;19918;-74
2023/01/08 10:33:43;;;;;;;4.63;0.90;;;7.40;99.90;;;;;;7405751;19;19926;-72
2023/01/08 10:36:16;;;;;;;4.40;0.93;;;7.40;99.90;;;;;;7406342;19;20356;-72
2023/01/08 10:38:54;;;;;;;7.80;0.98;;;7.50;99.90;;;;;;7403727;19;19919;-73
2023/01/08 10:41:25;;;;;;;4.65;1.10;;;7.40;99.90;;;;;;7403150;19;20013;-78
2023/01/08 10:43:57;;;;;;;3.97;0.80;;;8.60;99.90;;;;;;7407876;19;19925;-78
2023/01/08 10:46:29;;;;;;;3.58;1.27;;;7.50;99.90;;;;;;7402202;19;19942;-76
2023/01/08 10:49:02;;;;;;;3.83;0.75;;;7.30;99.90;;;;;;7404129;19;19922;-74
2023/01/08 10:51:34;;;;;;;3.42;1.05;;;7.50;99.90;;;;;;7404526;19;19923;-76
2023/01/08 10:54:15;;;;;;;8.13;1.33;;;7.50;99.90;;;;;;7404075;19;20398;-74
2023/01/08 10:56:47;;;;;;;4.43;1.30;;;7.50;99.90;;;;;;7405860;19;20078;-72
2023/01/08 10:59:20;;;;;;;5.05;1.17;;;7.60;99.90;;;;;;7404632;19;20340;-76
2023/01/08 11:01:51;;;;;;;2.20;1.30;;;7.60;99.90;;;;;;7405247;19;19918;-79
2023/01/08 11:04:25;;;;;;;3.45;0.88;;;7.70;99.90;;;;;;7405459;19;19922;-78
2023/01/08 11:06:58;;;;;;;7.75;2.03;;;7.70;99.90;;;;;;7406735;19;19922;-80
2023/01/08 11:09:32;;;;;;;4.90;1.70;;;7.60;99.90;;;;;;7407644;19;19926;-83
2023/01/08 11:12:06;;;;;;;4.13;0.90;;;7.70;99.90;;;;;;7404473;19;19915;-80
2023/01/08 11:14:38;;;;;;;4.40;1.15;;;7.70;99.90;;;;;;7406592;19;19927;-78
2023/01/08 11:17:12;;;;;;;2.25;0.80;;;7.70;99.90;;;;;;7403633;19;19957;-76
2023/01/08 11:19:41;;;;;;;4.50;0.90;;;7.80;99.90;;;;;;7404967;19;19919;-76
2023/01/08 11:22:20;;;;;;;5.05;1.20;;;7.70;99.90;;;;;;7401713;19;19926;-79
2023/01/08 11:24:51;;;;;;;5.97;0.95;;;7.80;99.90;;;;;;7405420;19;19934;-81
2023/01/08 11:27:28;;;;;;;4.80;1.30;;;7.80;99.90;;;;;;7404812;19;19936;-81
2023/01/08 11:30:04;;;;;;;5.85;1.30;;;7.80;99.90;;;;;;7405452;19;19915;-82
2023/01/08 11:32:47;;;;;;;2.92;0.95;;;8.00;99.90;;;;;;7391340;19;19928;-83
2023/01/08 11:35:20;;;;;;;4.55;1.20;;;8.00;99.90;;;;;;7406965;19;20302;-82
2023/01/08 11:37:57;;;;;;;3.95;1.20;;;8.20;99.90;;;;;;7402950;19;19926;-80
2023/01/08 11:40:34;;;;;;;5.05;0.80;;;8.10;99.90;;;;;;7409118;19;19932;-79
2023/01/08 11:43:19;;;;;;;8.40;1.23;;;8.00;99.90;;;;;;7408571;19;19922;-76
2023/01/08 11:46:05;;;;;;;8.52;1.10;;;8.00;99.90;;;;;;7405167;19;20310;-76
2023/01/08 11:49:05;;;;;;;3.70;0.93;;;7.90;99.90;;;;;;7406811;19;19943;-75
2023/01/08 11:51:50;;;;;;;5.25;1.10;;;8.10;99.90;;;;;;7406716;19;20617;-77
2023/01/08 11:54:34;;;;;;;6.35;1.33;;;8.20;99.90;;;;;;7404509;19;20276;-76
2023/01/08 11:57:17;;;;;;;6.78;1.45;;;8.20;99.90;;;;;;7403322;19;19926;-76
2023/01/08 12:00:01;;;;;;;5.88;1.00;;;8.40;99.90;;;;;;7405917;19;19974;-76
2023/01/08 12:02:46;;;;;;;13.80;1.45;;;8.50;99.90;;;;;;7402632;19;19935;-77
2023/01/08 12:05:45;;;;;;;2.97;0.77;;;8.40;99.90;;;;;;7403618;19;19919;-76
2023/01/08 12:08:41;;;;;;;6.53;0.90;;;8.20;99.90;;;;;;7401195;19;19947;-76
2023/01/08 12:11:32;;;;;;;8.13;1.02;;;8.40;99.90;;;;;;7403511;19;19926;-77
2023/01/08 12:14:32;;;;;;;5.78;1.10;;;8.30;99.90;;;;;;7402752;19;19922;-69
2023/01/08 12:17:48;;;;;;;4.32;1.23;;;8.20;99.90;;;;;;7393486;19;19926;-69
2023/01/08 12:20:39;;;;;;;4.82;1.08;;;8.30;99.90;;;;;;7399203;19;20641;-73
2023/01/08 12:23:20;;;;;;;7.25;0.82;;;8.60;99.90;;;;;;7398615;19;19940;-72
2023/01/08 12:26:05;;;;;;;5.90;1.42;;;8.50;99.90;;;;;;7403267;19;19956;-72
2023/01/08 12:29:09;;;;;;;6.68;1.65;;;8.30;99.90;;;;;;7402307;19;19918;-72
2023/01/08 12:32:00;;;;;;;9.45;1.55;;;8.60;99.90;;;;;;7400415;19;19947;-71
2023/01/08 12:34:43;;;;;;;4.60;0.82;;;8.30;99.90;;;;;;7403757;19;19955;-71
2023/01/08 12:37:19;;;;;;;6.53;1.10;;;8.20;99.90;;;;;;7402151;19;19922;-73
2023/01/08 12:39:55;;;;;;;2.95;1.00;;;8.00;99.90;;;;;;7404596;19;19954;-71
2023/01/08 12:42:27;;;;;;;3.90;1.00;;;8.10;99.90;;;;;;7400975;19;19931;-71
2023/01/08 12:44:59;;;;;;;4.00;0.75;;;8.10;99.90;;;;;;7400915;19;19919;-73
2023/01/08 12:47:32;;;;;;;6.28;1.20;;;8.10;99.90;;;;;;7401697;19;19922;-72
2023/01/08 12:50:26;;;;;;;8.10;1.08;;;8.40;99.90;;;;;;7395908;19;19918;-76
2023/01/08 12:53:00;;;;;;;3.35;1.08;;;8.40;99.90;;;;;;7396554;19;19910;-77
2023/01/08 12:55:43;;;;;;;4.13;1.42;;;8.30;99.90;;;;;;7401278;19;19923;-75
2023/01/08 12:58:26;;;;;;;6.18;1.30;;;8.40;99.90;;;;;;7397980;19;19937;-73
2023/01/08 13:01:02;;;;;;;6.22;1.17;;;8.40;99.90;;;;;;7403265;19;20020;-78
2023/01/08 13:03:32;;;;;;;4.30;1.00;;;8.30;99.90;;;;;;7399169;19;20218;-82
2023/01/08 13:06:17;;;;;;;9.57;2.33;;;8.30;99.90;;;;;;7403954;19;19922;-79
2023/01/08 13:08:52;;;;;;;8.85;1.00;;;8.40;99.90;;;;;;7404268;19;19918;-79
2023/01/08 13:11:41;;;;;;;6.90;1.38;;;8.40;99.90;;;;;;7402499;19;19930;-80
2023/01/08 13:14:30;;;;;;;;;;;8.40;99.90;;;;;;7404245;19;19922;-77
2023/01/08 13:17:23;;;;;;;5.90;1.10;;;8.40;99.90;;;;;;7401131;19;20257;-76
2023/01/08 13:20:23;;;;;;;10.00;2.97;;;8.60;99.90;;;;;;7401002;19;19922;-77
2023/01/08 13:23:26;;;;;;;5.38;1.00;;;8.40;99.90;;;;;;7401912;19;19965;-75
2023/01/08 13:26:15;;;;;;;6.80;1.05;;;8.60;99.90;;;;;;7401674;19;19914;-77
2023/01/08 13:28:49;;;;;;;6.95;1.08;;;8.50;99.90;;;;;;7395683;19;19918;-74